createdAt,value
2023-01-11T00:02:05.780Z,100639.03
2023-01-11T00:04:33.243Z,100655.50
2023-01-11T00:07:00.669Z,100650.50
2023-01-11T00:09:28.635Z,100648.75
2023-01-11T00:11:57.027Z,100652.09
2023-01-11T00:14:24.491Z,100651.34
2023-01-11T00:16:51.889Z,100647.84
2023-01-11T00:19:19.202Z,100645.22
2023-01-11T00:21:49.669Z,100657.41
2023-01-11T00:24:16.949Z,100649.41
2023-01-11T00:26:44.847Z,100654.69
2023-01-11T00:29:12.399Z,100643.47
2023-01-11T00:31:39.757Z,100658.88
2023-01-11T00:34:07.016Z,100650.00
2023-01-11T00:36:35.006Z,100651.91
2023-01-11T00:39:02.903Z,100657.22
2023-01-11T00:41:48.530Z,100660.59
2023-01-11T00:44:36.812Z,100674.16
2023-01-11T00:47:23.580Z,100669.75
2023-01-11T00:49:50.719Z,100657.66
2023-01-11T00:52:17.749Z,100661.16
2023-01-11T00:54:45.092Z,100668.91
2023-01-11T00:57:12.409Z,100666.38
2023-01-11T00:59:40.697Z,100665.56
2023-01-11T01:02:10.168Z,100668.91
2023-01-11T01:04:38.365Z,100658.50
2023-01-11T01:07:05.891Z,100668.25
2023-01-11T01:09:33.783Z,100673.09
2023-01-11T01:12:04.687Z,100677.47
2023-01-11T01:14:33.487Z,100675.47
2023-01-11T01:17:03.757Z,100685.91
2023-01-11T01:19:31.905Z,100683.56
2023-01-11T01:21:59.972Z,100692.88
2023-01-11T01:24:31.303Z,100693.16
2023-01-11T01:26:59.276Z,100686.22
2023-01-11T01:29:26.545Z,100693.63
2023-01-11T01:31:54.023Z,100674.00
2023-01-11T01:34:21.387Z,100685.38
2023-01-11T01:36:48.545Z,100677.56
2023-01-11T01:39:15.723Z,100680.03
2023-01-11T01:41:43.085Z,100667.13
2023-01-11T01:44:47.441Z,100685.72
2023-01-11T01:47:15.775Z,100678.75
2023-01-11T01:49:45.240Z,100684.53
2023-01-11T01:52:13.416Z,100684.88
2023-01-11T01:54:45.073Z,100685.03
2023-01-11T01:57:19.508Z,100693.44
2023-01-11T01:59:52.092Z,100693.75
2023-01-11T02:02:24.902Z,100690.25
2023-01-11T02:04:54.806Z,100695.94
2023-01-11T02:07:31.124Z,100694.25
2023-01-11T02:10:09.909Z,100698.13
2023-01-11T02:12:57.455Z,100704.06
2023-01-11T02:15:25.568Z,100701.34
2023-01-11T02:17:52.600Z,100696.06
2023-01-11T02:20:43.982Z,100701.16
2023-01-11T02:23:48.050Z,100706.56
2023-01-11T02:26:45.856Z,100704.66
2023-01-11T02:29:15.631Z,100703.63
2023-01-11T02:32:17.321Z,100707.06
2023-01-11T02:34:47.354Z,100703.47
2023-01-11T02:37:43.837Z,100697.97
2023-01-11T02:40:17.427Z,100712.88
2023-01-11T02:43:09.295Z,100716.50
2023-01-11T02:45:54.830Z,100709.59
2023-01-11T02:49:04.176Z,100713.03
2023-01-11T02:52:00.653Z,100704.09
2023-01-11T02:54:29.448Z,100695.69
2023-01-11T02:57:00.748Z,100697.38
2023-01-11T02:59:33.536Z,100697.63
2023-01-11T03:02:01.122Z,100693.38
2023-01-11T03:04:37.105Z,100685.63
2023-01-11T03:07:32.541Z,100692.56
2023-01-11T03:10:20.561Z,100689.13
2023-01-11T03:13:16.152Z,100700.41
2023-01-11T03:16:08.796Z,100708.63
2023-01-11T03:18:48.267Z,100732.09
2023-01-11T03:21:24.678Z,100742.47
2023-01-11T03:24:13.744Z,100752.59
2023-01-11T03:26:40.965Z,100764.22
2023-01-11T03:29:10.694Z,100738.19
2023-01-11T03:32:16.597Z,100746.66
2023-01-11T03:34:49.843Z,100741.91
2023-01-11T03:37:42.344Z,100743.28
2023-01-11T03:40:18.397Z,100743.50
2023-01-11T03:43:08.850Z,100745.84
2023-01-11T03:45:43.976Z,100757.66
2023-01-11T03:48:18.078Z,100760.94
2023-01-11T03:50:48.443Z,100766.00
2023-01-11T03:53:18.632Z,100767.78
2023-01-11T03:55:49.814Z,100766.81
2023-01-11T03:58:16.972Z,100770.50
2023-01-11T04:00:44.864Z,100779.47
2023-01-11T04:03:12.919Z,100781.03
2023-01-11T04:05:43.928Z,100777.41
2023-01-11T04:08:11.799Z,100769.09
2023-01-11T04:10:39.514Z,100770.50
2023-01-11T04:13:06.547Z,100772.44
2023-01-11T04:15:35.068Z,100769.50
2023-01-11T04:18:05.993Z,100767.09
2023-01-11T04:20:35.943Z,100770.44
2023-01-11T04:23:04.376Z,100771.19
2023-01-11T04:25:31.615Z,100764.00
2023-01-11T04:27:58.994Z,100763.31
2023-01-11T04:30:27.185Z,100776.34
2023-01-11T04:32:54.406Z,100779.66
2023-01-11T04:35:21.749Z,100775.38
2023-01-11T04:37:49.307Z,100777.09
2023-01-11T04:40:16.839Z,100785.41
2023-01-11T04:42:47.007Z,100778.28
2023-01-11T04:45:17.423Z,100774.00
2023-01-11T04:47:44.675Z,100780.44
2023-01-11T04:50:12.165Z,100785.78
2023-01-11T04:52:41.872Z,100792.91
2023-01-11T04:55:09.780Z,100792.59
2023-01-11T04:57:36.878Z,100800.31
2023-01-11T05:00:10.845Z,100792.19
2023-01-11T05:02:41.154Z,100779.19
2023-01-11T05:05:10.359Z,100773.34
2023-01-11T05:07:39.053Z,100790.44
2023-01-11T05:10:06.672Z,100793.66
2023-01-11T05:12:34.561Z,100799.41
2023-01-11T05:15:01.665Z,100799.25
2023-01-11T05:17:28.836Z,100803.03
2023-01-11T05:19:55.983Z,100817.50
2023-01-11T05:22:23.213Z,100825.19
2023-01-11T05:24:50.213Z,100819.94
2023-01-11T05:27:17.295Z,100823.19
2023-01-11T05:29:44.626Z,100817.38
2023-01-11T05:32:12.829Z,100832.31
2023-01-11T05:34:40.965Z,100841.53
2023-01-11T05:37:08.244Z,100851.34
2023-01-11T05:39:35.524Z,100852.78
2023-01-11T05:42:02.467Z,100852.66
2023-01-11T05:44:48.185Z,100841.34
2023-01-11T05:47:15.863Z,100831.50
2023-01-11T05:49:43.694Z,100836.59
2023-01-11T05:52:11.387Z,100826.53
2023-01-11T05:54:38.659Z,100830.94
2023-01-11T05:57:10.808Z,100824.66
2023-01-11T05:59:38.536Z,100834.69
2023-01-11T06:02:06.281Z,100848.56
2023-01-11T06:04:33.753Z,100850.13
2023-01-11T06:07:00.927Z,100833.63
2023-01-11T06:09:28.679Z,100838.81
2023-01-11T06:11:56.100Z,100829.47
2023-01-11T06:14:23.456Z,100827.75
2023-01-11T06:16:50.524Z,100821.47
2023-01-11T06:19:18.347Z,100829.25
2023-01-11T06:21:45.661Z,100836.06
2023-01-11T06:24:13.032Z,100830.91
2023-01-11T06:26:40.506Z,100831.50
2023-01-11T06:29:07.955Z,100835.84
2023-01-11T06:31:35.274Z,100838.94
2023-01-11T06:34:02.522Z,100859.81
2023-01-11T06:36:29.926Z,100854.72
2023-01-11T06:38:57.364Z,100848.91
2023-01-11T06:41:24.777Z,100844.97
2023-01-11T06:43:51.964Z,100834.94
2023-01-11T06:46:19.911Z,100838.19
2023-01-11T06:48:48.029Z,100829.53
2023-01-11T06:51:16.932Z,100826.25
2023-01-11T06:53:46.642Z,100821.91
2023-01-11T06:56:19.219Z,100831.78
2023-01-11T06:58:48.089Z,100840.47
2023-01-11T07:01:17.435Z,100839.44
2023-01-11T07:03:45.657Z,100839.91
2023-01-11T07:06:13.970Z,100843.88
2023-01-11T07:08:42.934Z,100847.22
2023-01-11T07:11:10.315Z,100841.81
2023-01-11T07:13:38.756Z,100843.00
2023-01-11T07:16:06.601Z,100847.06
2023-01-11T07:18:34.224Z,100851.88
2023-01-11T07:21:02.702Z,100856.84
2023-01-11T07:23:29.798Z,100860.16
2023-01-11T07:25:57.591Z,100850.22
2023-01-11T07:28:24.873Z,100850.47
2023-01-11T07:30:58.512Z,100854.50
2023-01-11T07:33:27.088Z,100864.34
2023-01-11T07:35:55.440Z,100872.84
2023-01-11T07:38:23.349Z,100880.19
2023-01-11T07:40:51.252Z,100880.91
2023-01-11T07:43:20.665Z,100874.59
2023-01-11T07:45:50.198Z,100876.88
2023-01-11T07:48:25.518Z,100864.91
2023-01-11T07:50:56.467Z,100889.81
2023-01-11T07:53:26.788Z,100893.75
2023-01-11T07:55:58.359Z,100881.97
2023-01-11T07:58:26.018Z,100885.34
2023-01-11T08:00:53.813Z,100884.78
2023-01-11T08:03:22.314Z,100885.03
2023-01-11T08:05:52.140Z,100887.78
2023-01-11T08:08:20.480Z,100874.53
2023-01-11T08:11:08.481Z,100848.25
2023-01-11T08:13:54.654Z,100846.25
2023-01-11T08:16:22.151Z,100855.53
2023-01-11T08:18:51.562Z,100852.00
2023-01-11T08:21:19.553Z,100861.56
2023-01-11T08:23:47.289Z,100858.91
2023-01-11T08:26:18.997Z,100855.34
2023-01-11T08:28:47.328Z,100861.97
2023-01-11T08:31:14.926Z,100870.66
2023-01-11T08:33:42.110Z,100874.44
2023-01-11T08:36:11.937Z,100878.56
2023-01-11T08:38:39.279Z,100880.25
2023-01-11T08:41:14.620Z,100885.78
2023-01-11T08:43:42.974Z,100892.16
2023-01-11T08:46:10.473Z,100890.00
2023-01-11T08:48:37.384Z,100882.09
2023-01-11T08:51:04.649Z,100860.41
2023-01-11T08:53:32.267Z,100865.59
2023-01-11T08:56:00.130Z,100861.41
2023-01-11T08:58:28.278Z,100860.28
2023-01-11T09:01:00.233Z,100855.50
2023-01-11T09:03:29.102Z,100857.25
2023-01-11T09:05:59.574Z,100849.06
2023-01-11T09:08:28.099Z,100857.31
2023-01-11T09:11:00.446Z,100852.19
2023-01-11T09:13:28.105Z,100870.66
2023-01-11T09:15:57.371Z,100873.56
2023-01-11T09:18:27.341Z,100868.19
2023-01-11T09:20:55.320Z,100863.28
2023-01-11T09:23:22.822Z,100859.56
2023-01-11T09:25:51.510Z,100858.16
2023-01-11T09:28:18.945Z,100845.38
2023-01-11T09:30:46.271Z,100846.66
2023-01-11T09:33:13.715Z,100842.16
2023-01-11T09:35:42.702Z,100821.06
2023-01-11T09:38:10.250Z,100810.84
2023-01-11T09:41:00.762Z,100816.03
2023-01-11T09:43:31.165Z,100812.75
2023-01-11T09:46:08.666Z,100812.47
2023-01-11T09:48:52.783Z,100815.28
2023-01-11T09:51:21.020Z,100818.22
2023-01-11T09:53:51.114Z,100812.94
2023-01-11T09:56:48.129Z,100804.13
2023-01-11T09:59:27.204Z,100798.03
2023-01-11T10:02:28.597Z,100806.16
2023-01-11T10:05:47.057Z,100817.22
2023-01-11T10:18:28.388Z,100780.16
2023-01-11T10:18:30.455Z,100790.06
2023-01-11T10:21:13.840Z,100779.69
2023-01-11T10:23:59.044Z,100776.91
2023-01-11T10:26:32.980Z,100779.22
2023-01-11T10:29:19.440Z,100779.84
2023-01-11T10:32:39.663Z,100778.91
2023-01-11T10:35:48.244Z,100778.03
2023-01-11T10:39:20.044Z,100774.13
2023-01-11T10:42:12.555Z,100788.69
2023-01-11T10:45:00.994Z,100792.38
2023-01-11T10:47:44.042Z,100790.13
2023-01-11T10:50:59.230Z,100781.97
2023-01-11T10:53:39.758Z,100774.28
2023-01-11T10:56:30.228Z,100770.94
2023-01-11T10:59:25.713Z,100755.94
2023-01-11T11:02:23.039Z,100755.66
2023-01-11T11:04:55.511Z,100747.69
2023-01-11T11:07:39.943Z,100749.16
2023-01-11T11:10:24.995Z,100731.06
2023-01-11T11:12:59.952Z,100737.97
2023-01-11T11:16:12.629Z,100728.56
2023-01-11T11:18:42.322Z,100734.69
2023-01-11T11:21:33.403Z,100742.84
2023-01-11T11:24:17.678Z,100751.09
2023-01-11T11:26:51.607Z,100752.06
2023-01-11T11:29:29.281Z,100750.44
2023-01-11T11:32:00.668Z,100750.91
2023-01-11T11:34:29.229Z,100749.78
2023-01-11T11:37:00.186Z,100733.44
2023-01-11T11:39:32.075Z,100734.09
2023-01-11T11:42:17.049Z,100734.47
2023-01-11T11:44:44.758Z,100726.09
2023-01-11T11:47:16.970Z,100730.13
2023-01-11T11:49:44.716Z,100728.78
2023-01-11T11:52:18.262Z,100723.81
2023-01-11T11:54:56.926Z,100730.72
2023-01-11T11:57:30.021Z,100726.22
2023-01-11T12:00:08.174Z,100740.72
2023-01-11T12:02:44.201Z,100755.38
2023-01-11T12:05:16.141Z,100752.38
2023-01-11T12:07:54.624Z,100751.28
2023-01-11T12:10:32.670Z,100749.00
2023-01-11T12:13:02.786Z,100747.25
2023-01-11T12:15:32.968Z,100756.31
2023-01-11T12:18:19.030Z,100751.88
2023-01-11T12:20:47.944Z,100743.53
2023-01-11T12:23:21.972Z,100746.72
2023-01-11T12:26:07.562Z,100743.78
2023-01-11T12:28:54.368Z,100744.09
2023-01-11T12:31:31.424Z,100756.44
2023-01-11T12:34:14.784Z,100750.66
2023-01-11T12:37:10.219Z,100748.16
2023-01-11T12:39:48.705Z,100748.78
2023-01-11T12:43:14.700Z,100748.81
2023-01-11T12:46:07.651Z,100752.94
2023-01-11T12:48:57.050Z,100760.81
2023-01-11T12:51:44.574Z,100755.50
2023-01-11T12:54:33.732Z,100755.81
2023-01-11T12:57:12.355Z,100759.13
2023-01-11T13:00:10.727Z,100756.63
2023-01-11T13:02:59.709Z,100766.03
2023-01-11T13:05:38.871Z,100772.78
2023-01-11T13:08:10.832Z,100773.50
2023-01-11T13:10:50.363Z,100780.63
2023-01-11T13:13:28.164Z,100780.44
2023-01-11T13:16:18.220Z,100772.34
2023-01-11T13:19:00.128Z,100772.00
2023-01-11T13:21:44.840Z,100780.25
2023-01-11T13:24:25.865Z,100775.38
2023-01-11T13:27:00.483Z,100777.31
2023-01-11T13:29:32.437Z,100772.22
2023-01-11T13:32:04.451Z,100777.06
2023-01-11T13:34:48.650Z,100776.47
2023-01-11T13:37:26.694Z,100792.31
2023-01-11T13:40:02.440Z,100795.22
2023-01-11T13:42:48.510Z,100790.03
2023-01-11T13:45:18.771Z,100795.63
2023-01-11T13:48:01.021Z,100800.50
2023-01-11T13:50:44.760Z,100801.63
2023-01-11T13:53:28.718Z,100814.81
2023-01-11T13:56:13.448Z,100809.88
2023-01-11T13:59:12.121Z,100810.41
2023-01-11T14:01:56.245Z,100816.78
2023-01-11T14:04:33.221Z,100818.84
2023-01-11T14:10:21.377Z,100818.75
2023-01-11T14:13:07.138Z,100816.50
2023-01-11T14:16:05.290Z,100818.00
2023-01-11T14:19:06.162Z,100815.25
2023-01-11T14:21:54.129Z,100818.41
2023-01-11T14:24:23.244Z,100805.84
2023-01-11T14:27:17.188Z,100829.41
2023-01-11T14:29:52.098Z,100830.41
2023-01-11T14:32:42.685Z,100832.63
2023-01-11T14:35:44.616Z,100837.09
2023-01-11T14:38:25.124Z,100827.00
2023-01-11T14:41:11.689Z,100833.09
2023-01-11T14:43:39.146Z,100831.63
2023-01-11T14:46:35.574Z,100830.16
2023-01-11T14:49:40.254Z,100832.88
2023-01-11T14:52:34.520Z,100840.78
2023-01-11T14:55:17.517Z,100841.75
2023-01-11T14:58:02.060Z,100843.66
2023-01-11T15:00:29.405Z,100845.00
2023-01-11T15:03:02.048Z,100848.84
2023-01-11T15:05:33.013Z,100849.34
2023-01-11T15:08:15.774Z,100847.41
2023-01-11T15:11:05.628Z,100853.13
2023-01-11T15:13:57.658Z,100857.06
2023-01-11T15:16:49.512Z,100864.66
2023-01-11T15:19:29.568Z,100857.84
2023-01-11T15:21:58.694Z,100855.03
2023-01-11T15:24:40.700Z,100854.16
2023-01-11T15:27:22.902Z,100840.44
2023-01-11T15:29:56.641Z,100839.66
2023-01-11T15:32:28.156Z,100820.81
2023-01-11T15:35:17.959Z,100815.78
2023-01-11T15:37:59.068Z,100810.81
2023-01-11T15:40:29.419Z,100809.97
2023-01-11T15:43:18.362Z,100809.28
2023-01-11T15:46:26.488Z,100812.06
2023-01-11T15:49:12.382Z,100820.81
2023-01-11T15:52:04.196Z,100817.63
2023-01-11T15:55:22.347Z,100834.03
2023-01-11T15:57:58.494Z,100829.69
2023-01-11T16:00:50.608Z,100823.78
2023-01-11T16:03:30.614Z,100818.66
2023-01-11T16:06:13.210Z,100824.72
2023-01-11T16:08:40.153Z,100824.03
2023-01-11T16:11:27.136Z,100838.44
2023-01-11T16:13:59.948Z,100831.28
2023-01-11T16:16:40.403Z,100830.16
2023-01-11T16:19:13.547Z,100834.06
2023-01-11T16:21:42.356Z,100833.75
2023-01-11T16:24:15.317Z,100837.69
2023-01-11T16:26:42.676Z,100833.88
2023-01-11T16:29:31.325Z,100824.22
2023-01-11T16:32:03.271Z,100823.63
2023-01-11T16:34:42.811Z,100826.72
2023-01-11T16:37:35.505Z,100840.59
2023-01-11T16:40:14.561Z,100837.16
2023-01-11T16:42:49.182Z,100830.81
2023-01-11T16:45:24.900Z,100834.56
2023-01-11T16:48:14.004Z,100828.88
2023-01-11T16:51:15.145Z,100826.38
2023-01-11T16:53:45.286Z,100833.44
2023-01-11T16:56:22.639Z,100823.16
2023-01-11T16:59:14.563Z,100821.47
2023-01-11T17:02:00.039Z,100817.94
2023-01-11T17:04:33.118Z,100819.78
2023-01-11T17:07:42.072Z,100808.59
2023-01-11T17:10:28.205Z,100816.31
2023-01-11T17:13:36.946Z,100806.94
2023-01-11T17:16:10.864Z,100799.22
2023-01-11T17:18:40.675Z,100799.28
2023-01-11T17:21:15.363Z,100798.81
2023-01-11T17:23:44.997Z,100803.09
2023-01-11T17:26:23.275Z,100805.06
2023-01-11T17:28:56.011Z,100810.19
2023-01-11T17:31:42.050Z,100805.06
2023-01-11T17:34:23.392Z,100805.81
2023-01-11T17:36:51.127Z,100806.91
2023-01-11T17:39:24.680Z,100790.38
2023-01-11T17:42:11.028Z,100797.13
2023-01-11T17:44:57.185Z,100794.09
2023-01-11T17:47:25.081Z,100790.25
2023-01-11T17:49:59.634Z,100802.63
2023-01-11T17:52:28.098Z,100789.56
2023-01-11T17:55:04.709Z,100782.34
2023-01-11T17:57:31.875Z,100779.22
2023-01-11T18:00:25.858Z,100774.28
2023-01-11T18:02:54.044Z,100780.75
2023-01-11T18:05:27.249Z,100769.03
2023-01-11T18:07:59.298Z,100760.22
2023-01-11T18:10:30.620Z,100762.56
2023-01-11T18:12:59.881Z,100760.34
2023-01-11T18:15:28.280Z,100760.94
2023-01-11T18:17:57.264Z,100765.59
2023-01-11T18:20:33.277Z,100775.50
2023-01-11T18:23:08.095Z,100764.84
2023-01-11T18:25:35.511Z,100776.75
2023-01-11T18:28:11.289Z,100780.56
2023-01-11T18:30:53.951Z,100786.50
2023-01-11T18:33:25.350Z,100782.97
2023-01-11T18:35:59.935Z,100773.13
2023-01-11T18:38:32.067Z,100760.72
2023-01-11T18:41:25.223Z,100757.25
2023-01-11T18:43:53.013Z,100749.16
2023-01-11T18:46:20.264Z,100745.78
2023-01-11T18:48:47.676Z,100742.97
2023-01-11T18:51:22.259Z,100744.44
2023-01-11T18:53:49.210Z,100735.50
2023-01-11T18:56:16.765Z,100735.66
2023-01-11T18:58:43.559Z,100738.50
2023-01-11T19:01:11.097Z,100729.00
2023-01-11T19:03:38.735Z,100735.66
2023-01-11T19:06:06.956Z,100726.44
2023-01-11T19:08:34.095Z,100720.72
2023-01-11T19:11:03.195Z,100716.56
2023-01-11T19:13:30.892Z,100699.47
2023-01-11T19:16:00.991Z,100695.94
2023-01-11T19:18:29.171Z,100698.59
2023-01-11T19:21:02.673Z,100702.78
2023-01-11T19:23:31.016Z,100692.88
2023-01-11T19:26:00.197Z,100690.00
2023-01-11T19:28:27.872Z,100683.25
2023-01-11T19:30:54.956Z,100684.38
2023-01-11T19:33:22.763Z,100688.88
2023-01-11T19:35:49.948Z,100690.19
2023-01-11T19:38:18.807Z,100690.34
2023-01-11T19:40:47.957Z,100687.03
2023-01-11T19:43:16.731Z,100677.75
2023-01-11T19:45:43.928Z,100677.16
2023-01-11T19:48:12.582Z,100682.66
2023-01-11T19:50:39.847Z,100691.84
2023-01-11T19:53:07.451Z,100691.44
2023-01-11T19:55:34.924Z,100694.56
2023-01-11T19:58:03.008Z,100675.13
2023-01-11T20:00:30.362Z,100678.44
2023-01-11T20:02:57.744Z,100675.41
2023-01-11T20:05:24.818Z,100674.19
2023-01-11T20:07:54.709Z,100681.38
2023-01-11T20:10:21.958Z,100687.69
2023-01-11T20:12:50.576Z,100686.34
2023-01-11T20:15:17.897Z,100675.47
2023-01-11T20:17:45.587Z,100673.22
2023-01-11T20:20:15.069Z,100671.53
2023-01-11T20:22:46.360Z,100664.69
2023-01-11T20:25:13.833Z,100664.09
2023-01-11T20:27:40.987Z,100659.69
2023-01-11T20:30:08.990Z,100649.72
2023-01-11T20:32:42.029Z,100652.44
2023-01-11T20:35:10.719Z,100642.34
2023-01-11T20:37:38.098Z,100638.28
2023-01-11T20:40:06.225Z,100630.63
2023-01-11T20:42:34.518Z,100628.06
2023-01-11T20:45:01.825Z,100637.72
2023-01-11T20:47:28.912Z,100632.69
2023-01-11T20:49:56.593Z,100649.31
2023-01-11T20:52:24.178Z,100661.31
2023-01-11T20:54:51.509Z,100665.03
2023-01-11T20:57:18.494Z,100670.44
2023-01-11T20:59:45.793Z,100674.66
2023-01-11T21:02:14.892Z,100672.16
2023-01-11T21:04:42.120Z,100671.31
2023-01-11T21:07:09.799Z,100678.09
2023-01-11T21:09:37.658Z,100676.16
2023-01-11T21:12:05.229Z,100671.78
2023-01-11T21:14:32.749Z,100669.88
2023-01-11T21:17:00.008Z,100669.16
2023-01-11T21:19:27.248Z,100661.78
2023-01-11T21:21:54.824Z,100663.06
2023-01-11T21:24:22.041Z,100657.59
2023-01-11T21:26:49.330Z,100660.69
2023-01-11T21:29:16.712Z,100659.41
2023-01-11T21:31:43.950Z,100661.47
2023-01-11T21:34:12.931Z,100668.09
2023-01-11T21:36:40.826Z,100667.72
2023-01-11T21:39:09.647Z,100664.78
2023-01-11T21:41:55.102Z,100664.41
2023-01-11T21:44:27.216Z,100668.25
2023-01-11T21:46:55.820Z,100666.69
2023-01-11T21:49:24.840Z,100673.50
2023-01-11T21:51:52.637Z,100662.06
2023-01-11T21:54:19.814Z,100661.53
2023-01-11T21:56:47.760Z,100667.34
2023-01-11T21:59:17.357Z,100666.16
2023-01-11T22:01:45.950Z,100663.22
2023-01-11T22:04:15.866Z,100656.00
2023-01-11T22:06:47.423Z,100661.81
2023-01-11T22:09:14.773Z,100661.50
2023-01-11T22:11:42.171Z,100665.50
2023-01-11T22:14:09.532Z,100663.66
2023-01-11T22:16:37.440Z,100660.06
2023-01-11T22:19:07.504Z,100658.97
2023-01-11T22:21:38.024Z,100655.06
2023-01-11T22:24:07.891Z,100660.03
2023-01-11T22:26:39.262Z,100664.16
2023-01-11T22:29:16.773Z,100656.19
2023-01-11T22:31:52.771Z,100658.84
2023-01-11T22:34:22.072Z,100662.88
2023-01-11T22:36:49.866Z,100651.78
2023-01-11T22:39:19.528Z,100653.53
2023-01-11T22:41:48.811Z,100655.03
2023-01-11T22:44:18.362Z,100655.63
2023-01-11T22:46:45.687Z,100656.50
2023-01-11T22:49:13.684Z,100638.31
2023-01-11T22:51:42.769Z,100641.69
2023-01-11T22:54:11.274Z,100649.13
2023-01-11T22:56:38.380Z,100642.09
2023-01-11T22:59:05.741Z,100642.81
2023-01-11T23:01:35.120Z,100634.00
2023-01-11T23:04:02.938Z,100636.38
2023-01-11T23:06:32.656Z,100639.69
2023-01-11T23:09:00.800Z,100640.16
2023-01-11T23:11:48.936Z,100635.75
2023-01-11T23:14:18.926Z,100632.72
2023-01-11T23:16:47.229Z,100634.31
2023-01-11T23:19:20.583Z,100628.06
2023-01-11T23:21:48.233Z,100629.66
2023-01-11T23:24:16.691Z,100619.41
2023-01-11T23:26:45.573Z,100610.72
2023-01-11T23:29:13.274Z,100624.59
2023-01-11T23:31:41.633Z,100621.88
2023-01-11T23:34:10.056Z,100616.84
2023-01-11T23:36:41.085Z,100613.66
2023-01-11T23:39:12.900Z,100621.34
2023-01-11T23:41:58.537Z,100629.81
2023-01-11T23:44:26.223Z,100629.66
2023-01-11T23:47:12.266Z,100635.00
2023-01-11T23:49:39.473Z,100636.53
2023-01-11T23:52:06.908Z,100633.97
2023-01-11T23:54:34.488Z,100636.63
2023-01-11T23:57:03.205Z,100638.88
2023-01-11T23:59:30.346Z,100632.00
